sensor_id;sensor_type;location;lat;lon;timestamp;temperature;humidity
11656;DHT22;5884;43.618;1.438;2024-03-23T05:47:34;12.60;99.90
11656;DHT22;5884;43.618;1.438;2024-03-23T05:50:01;12.50;99.90
11656;DHT22;5884;43.618;1.438;2024-03-23T05:52:28;12.40;99.90
11656;DHT22;5884;43.618;1.438;2024-03-23T05:54:55;12.50;99.90
11656;DHT22;5884;43.618;1.438;2024-03-23T05:57:21;12.50;99.90
11656;DHT22;5884;43.618;1.438;2024-03-23T05:59:49;12.50;99.90
11656;DHT22;5884;43.618;1.438;2024-03-23T06:02:15;12.50;99.90
11656;DHT22;5884;43.618;1.438;2024-03-23T06:04:45;12.40;99.90
11656;DHT22;5884;43.618;1.438;2024-03-23T06:07:11;12.40;99.90
11656;DHT22;5884;43.618;1.438;2024-03-23T06:09:39;12.40;99.90
11656;DHT22;5884;43.618;1.438;2024-03-23T06:12:06;12.60;99.90
11656;DHT22;5884;43.618;1.438;2024-03-23T06:14:34;12.60;99.90
11656;DHT22;5884;43.618;1.438;2024-03-23T06:17:00;12.50;99.90
11656;DHT22;5884;43.618;1.438;2024-03-23T06:19:27;12.50;99.90
11656;DHT22;5884;43.618;1.438;2024-03-23T06:21:55;12.60;99.90
11656;DHT22;5884;43.618;1.438;2024-03-23T06:24:22;12.50;99.90
11656;DHT22;5884;43.618;1.438;2024-03-23T06:26:50;12.60;99.90
11656;DHT22;5884;43.618;1.438;2024-03-23T06:29:17;12.60;99.90
11656;DHT22;5884;43.618;1.438;2024-03-23T06:31:43;12.60;99.90
11656;DHT22;5884;43.618;1.438;2024-03-23T06:34:11;12.50;99.90
11656;DHT22;5884;43.618;1.438;2024-03-23T06:36:37;12.50;99.90
11656;DHT22;5884;43.618;1.438;2024-03-23T06:39:06;12.40;99.90
11656;DHT22;5884;43.618;1.438;2024-03-23T06:41:32;12.30;99.90
11656;DHT22;5884;43.618;1.438;2024-03-23T06:43:59;12.30;99.90
11656;DHT22;5884;43.618;1.438;2024-03-23T06:46:25;12.30;99.90
11656;DHT22;5884;43.618;1.438;2024-03-23T06:48:52;12.30;99.90
11656;DHT22;5884;43.618;1.438;2024-03-23T06:51:19;12.30;99.90
11656;DHT22;5884;43.618;1.438;2024-03-23T06:53:46;12.30;99.90
11656;DHT22;5884;43.618;1.438;2024-03-23T06:56:14;12.30;99.90
11656;DHT22;5884;43.618;1.438;2024-03-23T06:58:41;12.30;99.90
11656;DHT22;5884;43.618;1.438;2024-03-23T07:01:07;12.20;99.90
11656;DHT22;5884;43.618;1.438;2024-03-23T07:03:36;12.20;99.90
11656;DHT22;5884;43.618;1.438;2024-03-23T07:06:02;12.10;99.90
11656;DHT22;5884;43.618;1.438;2024-03-23T07:08:30;12.10;99.90
11656;DHT22;5884;43.618;1.438;2024-03-23T07:10:56;12.10;99.90
11656;DHT22;5884;43.618;1.438;2024-03-23T07:13:25;12.00;99.90
11656;DHT22;5884;43.618;1.438;2024-03-23T07:15:51;12.00;99.90
11656;DHT22;5884;43.618;1.438;2024-03-23T07:18:20;12.10;99.90
11656;DHT22;5884;43.618;1.438;2024-03-23T07:20:52;12.00;99.90
11656;DHT22;5884;43.618;1.438;2024-03-23T07:23:20;11.90;99.90
11656;DHT22;5884;43.618;1.438;2024-03-23T07:25:56;11.80;99.90
11656;DHT22;5884;43.618;1.438;2024-03-23T07:28:25;11.80;99.90
11656;DHT22;5884;43.618;1.438;2024-03-23T07:31:07;11.70;99.90
11656;DHT22;5884;43.618;1.438;2024-03-23T07:33:37;11.70;99.90
11656;DHT22;5884;43.618;1.438;2024-03-23T07:36:04;11.70;99.90
11656;DHT22;5884;43.618;1.438;2024-03-23T07:38:32;11.60;99.90
11656;DHT22;5884;43.618;1.438;2024-03-23T07:41:06;11.40;99.90
11656;DHT22;5884;43.618;1.438;2024-03-23T07:43:35;11.40;99.90
11656;DHT22;5884;43.618;1.438;2024-03-23T07:46:02;11.40;99.90
11656;DHT22;5884;43.618;1.438;2024-03-23T07:48:30;11.40;99.90
11656;DHT22;5884;43.618;1.438;2024-03-23T07:51:01;11.20;99.90
11656;DHT22;5884;43.618;1.438;2024-03-23T07:53:30;11.30;99.90
11656;DHT22;5884;43.618;1.438;2024-03-23T07:55:59;11.30;99.90
11656;DHT22;5884;43.618;1.438;2024-03-23T07:58:27;11.40;99.90
11656;DHT22;5884;43.618;1.438;2024-03-23T08:00:56;11.40;99.90
11656;DHT22;5884;43.618;1.438;2024-03-23T08:03:23;11.20;99.90
11656;DHT22;5884;43.618;1.438;2024-03-23T08:05:50;11.10;99.90
11656;DHT22;5884;43.618;1.438;2024-03-23T08:08:17;11.20;99.90
11656;DHT22;5884;43.618;1.438;2024-03-23T08:10:50;11.10;99.90
11656;DHT22;5884;43.618;1.438;2024-03-23T08:13:18;10.80;99.90
11656;DHT22;5884;43.618;1.438;2024-03-23T08:15:44;10.30;99.90
11656;DHT22;5884;43.618;1.438;2024-03-23T08:18:13;10.20;99.90
11656;DHT22;5884;43.618;1.438;2024-03-23T08:20:41;10.20;99.90
11656;DHT22;5884;43.618;1.438;2024-03-23T08:23:08;10.30;99.90
11656;DHT22;5884;43.618;1.438;2024-03-23T08:25:35;10.20;99.90
11656;DHT22;5884;43.618;1.438;2024-03-23T08:28:02;10.40;99.90
11656;DHT22;5884;43.618;1.438;2024-03-23T08:30:29;10.40;99.90
11656;DHT22;5884;43.618;1.438;2024-03-23T08:32:57;10.40;99.90
11656;DHT22;5884;43.618;1.438;2024-03-23T08:35:24;10.50;99.90
11656;DHT22;5884;43.618;1.438;2024-03-23T08:37:52;10.70;99.90
11656;DHT22;5884;43.618;1.438;2024-03-23T08:40:18;10.50;99.90
11656;DHT22;5884;43.618;1.438;2024-03-23T08:42:45;10.70;99.90
11656;DHT22;5884;43.618;1.438;2024-03-23T08:45:11;10.60;99.90
11656;DHT22;5884;43.618;1.438;2024-03-23T08:47:38;10.50;99.90
11656;DHT22;5884;43.618;1.438;2024-03-23T08:50:05;10.50;99.90
11656;DHT22;5884;43.618;1.438;2024-03-23T08:52:34;10.60;99.90
11656;DHT22;5884;43.618;1.438;2024-03-23T08:55:01;10.50;99.90
11656;DHT22;5884;43.618;1.438;2024-03-23T08:57:28;10.30;99.90
11656;DHT22;5884;43.618;1.438;2024-03-23T08:59:54;10.40;99.90
11656;DHT22;5884;43.618;1.438;2024-03-23T09:02:21;10.70;99.90
11656;DHT22;5884;43.618;1.438;2024-03-23T09:04:47;10.90;99.90
11656;DHT22;5884;43.618;1.438;2024-03-23T09:07:15;11.20;99.90
11656;DHT22;5884;43.618;1.438;2024-03-23T09:09:42;11.40;99.90
11656;DHT22;5884;43.618;1.438;2024-03-23T09:12:10;11.60;99.90
11656;DHT22;5884;43.618;1.438;2024-03-23T09:14:36;11.60;99.90
11656;DHT22;5884;43.618;1.438;2024-03-23T09:17:03;12.00;99.90
11656;DHT22;5884;43.618;1.438;2024-03-23T09:19:29;12.10;99.90
11656;DHT22;5884;43.618;1.438;2024-03-23T09:21:57;12.10;99.90
11656;DHT22;5884;43.618;1.438;2024-03-23T09:24:23;11.90;99.90
11656;DHT22;5884;43.618;1.438;2024-03-23T09:26:53;12.10;99.90
11656;DHT22;5884;43.618;1.438;2024-03-23T09:29:19;12.00;99.90
11656;DHT22;5884;43.618;1.438;2024-03-23T09:31:46;12.00;99.90
11656;DHT22;5884;43.618;1.438;2024-03-23T09:34:12;12.10;99.90
11656;DHT22;5884;43.618;1.438;2024-03-23T09:36:39;12.10;99.90
11656;DHT22;5884;43.618;1.438;2024-03-23T09:39:07;12.00;99.90
11656;DHT22;5884;43.618;1.438;2024-03-23T09:41:35;12.00;99.90
11656;DHT22;5884;43.618;1.438;2024-03-23T09:44:02;12.00;99.90
11656;DHT22;5884;43.618;1.438;2024-03-23T09:46:31;12.00;99.90
11656;DHT22;5884;43.618;1.438;2024-03-23T09:49:00;12.10;99.90
11656;DHT22;5884;43.618;1.438;2024-03-23T09:51:30;12.20;99.90
11656;DHT22;5884;43.618;1.438;2024-03-23T09:53:56;12.20;99.90
11656;DHT22;5884;43.618;1.438;2024-03-23T09:56:24;12.10;99.90
11656;DHT22;5884;43.618;1.438;2024-03-23T09:58:50;12.10;99.90
11656;DHT22;5884;43.618;1.438;2024-03-23T10:01:19;12.20;99.90
11656;DHT22;5884;43.618;1.438;2024-03-23T10:03:45;12.30;99.90
11656;DHT22;5884;43.618;1.438;2024-03-23T10:06:12;12.30;99.90
11656;DHT22;5884;43.618;1.438;2024-03-23T10:08:39;12.30;99.90
11656;DHT22;5884;43.618;1.438;2024-03-23T10:11:13;12.30;99.90
11656;DHT22;5884;43.618;1.438;2024-03-23T10:13:42;12.50;99.90
11656;DHT22;5884;43.618;1.438;2024-03-23T10:16:12;12.60;99.90
11656;DHT22;5884;43.618;1.438;2024-03-23T10:18:40;12.40;99.90
11656;DHT22;5884;43.618;1.438;2024-03-23T10:21:08;12.40;99.90
11656;DHT22;5884;43.618;1.438;2024-03-23T10:23:37;12.80;99.90
11656;DHT22;5884;43.618;1.438;2024-03-23T10:26:14;12.80;99.90
11656;DHT22;5884;43.618;1.438;2024-03-23T10:28:55;12.80;99.90
11656;DHT22;5884;43.618;1.438;2024-03-23T10:31:26;12.90;99.90
11656;DHT22;5884;43.618;1.438;2024-03-23T10:33:54;12.90;99.90
11656;DHT22;5884;43.618;1.438;2024-03-23T10:36:22;13.00;99.90
11656;DHT22;5884;43.618;1.438;2024-03-23T10:38:50;13.00;99.90
11656;DHT22;5884;43.618;1.438;2024-03-23T10:41:18;12.90;99.90
11656;DHT22;5884;43.618;1.438;2024-03-23T10:43:46;13.00;99.90
11656;DHT22;5884;43.618;1.438;2024-03-23T10:46:14;13.10;99.90
11656;DHT22;5884;43.618;1.438;2024-03-23T10:48:41;13.40;99.90
11656;DHT22;5884;43.618;1.438;2024-03-23T10:51:10;13.40;99.90
11656;DHT22;5884;43.618;1.438;2024-03-23T10:53:37;13.40;99.90
11656;DHT22;5884;43.618;1.438;2024-03-23T10:56:05;13.30;99.90
11656;DHT22;5884;43.618;1.438;2024-03-23T10:58:38;13.30;99.90
11656;DHT22;5884;43.618;1.438;2024-03-23T11:01:06;13.30;99.90
11656;DHT22;5884;43.618;1.438;2024-03-23T11:03:34;13.40;99.90
11656;DHT22;5884;43.618;1.438;2024-03-23T11:06:03;13.50;99.90
11656;DHT22;5884;43.618;1.438;2024-03-23T11:08:35;13.40;99.90
11656;DHT22;5884;43.618;1.438;2024-03-23T11:11:21;13.10;99.90
11656;DHT22;5884;43.618;1.438;2024-03-23T11:13:50;13.40;99.90
11656;DHT22;5884;43.618;1.438;2024-03-23T11:16:21;13.40;99.90
11656;DHT22;5884;43.618;1.438;2024-03-23T11:18:48;13.50;99.90
11656;DHT22;5884;43.618;1.438;2024-03-23T11:24:30;13.40;99.90
11656;DHT22;5884;43.618;1.438;2024-03-23T11:26:57;13.50;99.90
11656;DHT22;5884;43.618;1.438;2024-03-23T11:29:26;13.70;99.90
11656;DHT22;5884;43.618;1.438;2024-03-23T11:31:55;13.70;99.90
11656;DHT22;5884;43.618;1.438;2024-03-23T11:34:22;13.70;99.90
11656;DHT22;5884;43.618;1.438;2024-03-23T11:36:49;13.70;99.90
11656;DHT22;5884;43.618;1.438;2024-03-23T11:39:17;13.80;99.90
11656;DHT22;5884;43.618;1.438;2024-03-23T11:41:48;13.70;99.90
11656;DHT22;5884;43.618;1.438;2024-03-23T11:44:16;13.80;99.90
11656;DHT22;5884;43.618;1.438;2024-03-23T11:46:44;13.90;99.90
11656;DHT22;5884;43.618;1.438;2024-03-23T11:49:23;14.20;99.90
11656;DHT22;5884;43.618;1.438;2024-03-23T11:51:53;14.30;99.90
11656;DHT22;5884;43.618;1.438;2024-03-23T11:54:21;14.50;99.90
11656;DHT22;5884;43.618;1.438;2024-03-23T11:56:57;14.70;99.90
11656;DHT22;5884;43.618;1.438;2024-03-23T11:59:34;14.60;99.90
11656;DHT22;5884;43.618;1.438;2024-03-23T12:02:07;14.70;99.90
11656;DHT22;5884;43.618;1.438;2024-03-23T12:04:33;14.80;99.90
11656;DHT22;5884;43.618;1.438;2024-03-23T12:07:14;15.10;99.90
11656;DHT22;5884;43.618;1.438;2024-03-23T12:09:42;15.10;99.90
11656;DHT22;5884;43.618;1.438;2024-03-23T12:12:13;15.00;99.90
11656;DHT22;5884;43.618;1.438;2024-03-23T12:14:41;14.90;99.90
11656;DHT22;5884;43.618;1.438;2024-03-23T12:17:12;15.20;99.90
11656;DHT22;5884;43.618;1.438;2024-03-23T12:19:39;15.00;99.90
11656;DHT22;5884;43.618;1.438;2024-03-23T12:22:07;15.00;99.90
11656;DHT22;5884;43.618;1.438;2024-03-23T12:24:34;15.00;99.90
11656;DHT22;5884;43.618;1.438;2024-03-23T12:27:02;15.10;99.90
11656;DHT22;5884;43.618;1.438;2024-03-23T12:29:32;15.00;99.90
11656;DHT22;5884;43.618;1.438;2024-03-23T12:32:00;15.00;99.90
11656;DHT22;5884;43.618;1.438;2024-03-23T12:34:27;15.10;99.90
11656;DHT22;5884;43.618;1.438;2024-03-23T12:36:55;15.20;99.90
11656;DHT22;5884;43.618;1.438;2024-03-23T12:39:22;15.10;99.90
11656;DHT22;5884;43.618;1.438;2024-03-23T12:41:50;15.10;99.90
11656;DHT22;5884;43.618;1.438;2024-03-23T12:44:18;15.20;99.90
11656;DHT22;5884;43.618;1.438;2024-03-23T12:46:48;15.10;99.90
11656;DHT22;5884;43.618;1.438;2024-03-23T12:49:14;15.10;99.90
11656;DHT22;5884;43.618;1.438;2024-03-23T12:51:48;15.30;99.90
11656;DHT22;5884;43.618;1.438;2024-03-23T12:54:20;15.10;99.90
11656;DHT22;5884;43.618;1.438;2024-03-23T12:56:47;15.10;99.90
11656;DHT22;5884;43.618;1.438;2024-03-23T12:59:13;15.40;99.90
11656;DHT22;5884;43.618;1.438;2024-03-23T13:01:42;15.30;99.90
11656;DHT22;5884;43.618;1.438;2024-03-23T13:04:10;15.30;99.90
11656;DHT22;5884;43.618;1.438;2024-03-23T13:06:38;15.50;99.90
11656;DHT22;5884;43.618;1.438;2024-03-23T13:09:04;15.60;99.90
11656;DHT22;5884;43.618;1.438;2024-03-23T13:11:32;15.50;99.90
11656;DHT22;5884;43.618;1.438;2024-03-23T13:13:58;15.40;99.90
11656;DHT22;5884;43.618;1.438;2024-03-23T13:16:25;15.50;99.90
11656;DHT22;5884;43.618;1.438;2024-03-23T13:18:51;15.60;99.90
11656;DHT22;5884;43.618;1.438;2024-03-23T13:21:20;15.60;99.90
11656;DHT22;5884;43.618;1.438;2024-03-23T13:23:47;15.70;99.90
11656;DHT22;5884;43.618;1.438;2024-03-23T13:26:16;15.60;99.90
11656;DHT22;5884;43.618;1.438;2024-03-23T13:28:42;15.70;99.90
11656;DHT22;5884;43.618;1.438;2024-03-23T13:31:10;15.70;99.90
11656;DHT22;5884;43.618;1.438;2024-03-23T13:33:36;15.50;99.90
11656;DHT22;5884;43.618;1.438;2024-03-23T13:36:04;15.50;99.90
11656;DHT22;5884;43.618;1.438;2024-03-23T13:38:32;15.80;99.90
11656;DHT22;5884;43.618;1.438;2024-03-23T13:41:00;15.70;99.90
11656;DHT22;5884;43.618;1.438;2024-03-23T13:43:27;15.90;99.90
11656;DHT22;5884;43.618;1.438;2024-03-23T13:45:56;15.70;99.90
11656;DHT22;5884;43.618;1.438;2024-03-23T13:48:24;15.80;99.90
11656;DHT22;5884;43.618;1.438;2024-03-23T13:50:59;16.00;99.90
11656;DHT22;5884;43.618;1.438;2024-03-23T13:53:25;16.00;99.90
11656;DHT22;5884;43.618;1.438;2024-03-23T13:55:54;15.90;99.90
11656;DHT22;5884;43.618;1.438;2024-03-23T13:58:21;15.80;99.90
11656;DHT22;5884;43.618;1.438;2024-03-23T14:00:51;15.90;99.90
11656;DHT22;5884;43.618;1.438;2024-03-23T14:03:17;15.70;99.90
11656;DHT22;5884;43.618;1.438;2024-03-23T14:05:45;15.80;99.90
11656;DHT22;5884;43.618;1.438;2024-03-23T14:08:12;15.80;99.90
11656;DHT22;5884;43.618;1.438;2024-03-23T14:10:41;15.80;99.90
11656;DHT22;5884;43.618;1.438;2024-03-23T14:13:09;16.00;99.90
11656;DHT22;5884;43.618;1.438;2024-03-23T14:15:36;16.00;99.90
11656;DHT22;5884;43.618;1.438;2024-03-23T14:18:03;15.80;99.90
11656;DHT22;5884;43.618;1.438;2024-03-23T14:20:30;15.80;99.90
11656;DHT22;5884;43.618;1.438;2024-03-23T14:22:56;15.90;99.90
11656;DHT22;5884;43.618;1.438;2024-03-23T14:25:24;15.90;99.90
11656;DHT22;5884;43.618;1.438;2024-03-23T14:27:53;15.80;99.90
11656;DHT22;5884;43.618;1.438;2024-03-23T14:30:21;15.90;99.90
11656;DHT22;5884;43.618;1.438;2024-03-23T14:32:48;15.80;99.90
11656;DHT22;5884;43.618;1.438;2024-03-23T14:35:17;15.90;99.90
11656;DHT22;5884;43.618;1.438;2024-03-23T14:37:43;16.00;99.90
11656;DHT22;5884;43.618;1.438;2024-03-23T14:40:12;16.10;99.90
11656;DHT22;5884;43.618;1.438;2024-03-23T14:42:38;16.10;99.90
11656;DHT22;5884;43.618;1.438;2024-03-23T14:45:07;15.90;99.90
11656;DHT22;5884;43.618;1.438;2024-03-23T14:47:35;15.90;99.90
11656;DHT22;5884;43.618;1.438;2024-03-23T14:50:03;16.00;99.90
11656;DHT22;5884;43.618;1.438;2024-03-23T14:52:29;16.00;99.90
11656;DHT22;5884;43.618;1.438;2024-03-23T14:54:57;16.00;99.90
11656;DHT22;5884;43.618;1.438;2024-03-23T14:57:23;16.10;99.90
11656;DHT22;5884;43.618;1.438;2024-03-23T14:59:50;16.10;99.90
11656;DHT22;5884;43.618;1.438;2024-03-23T15:02:17;15.90;99.90
11656;DHT22;5884;43.618;1.438;2024-03-23T15:04:46;15.90;99.90
11656;DHT22;5884;43.618;1.438;2024-03-23T15:07:12;16.00;99.90
11656;DHT22;5884;43.618;1.438;2024-03-23T15:09:39;16.10;99.90
11656;DHT22;5884;43.618;1.438;2024-03-23T15:12:06;16.10;99.90
11656;DHT22;5884;43.618;1.438;2024-03-23T15:14:34;16.00;99.90
11656;DHT22;5884;43.618;1.438;2024-03-23T15:17:00;16.00;99.90
11656;DHT22;5884;43.618;1.438;2024-03-23T15:19:30;16.20;99.90
11656;DHT22;5884;43.618;1.438;2024-03-23T15:21:58;15.90;99.90
11656;DHT22;5884;43.618;1.438;2024-03-23T15:24:25;15.90;99.90
11656;DHT22;5884;43.618;1.438;2024-03-23T15:26:51;15.90;99.90
11656;DHT22;5884;43.618;1.438;2024-03-23T15:29:20;16.00;99.90
11656;DHT22;5884;43.618;1.438;2024-03-23T15:31:47;15.90;99.90
11656;DHT22;5884;43.618;1.438;2024-03-23T15:34:18;15.90;99.90
11656;DHT22;5884;43.618;1.438;2024-03-23T15:36:44;15.80;99.90
11656;DHT22;5884;43.618;1.438;2024-03-23T15:39:13;15.80;99.90
11656;DHT22;5884;43.618;1.438;2024-03-23T15:41:40;15.80;99.90
11656;DHT22;5884;43.618;1.438;2024-03-23T15:44:07;15.80;99.90
11656;DHT22;5884;43.618;1.438;2024-03-23T15:46:33;16.10;99.90
11656;DHT22;5884;43.618;1.438;2024-03-23T15:49:00;15.90;99.90
11656;DHT22;5884;43.618;1.438;2024-03-23T15:51:27;15.90;99.90
11656;DHT22;5884;43.618;1.438;2024-03-23T15:53:58;15.90;99.90
11656;DHT22;5884;43.618;1.438;2024-03-23T15:56:26;15.90;99.90
11656;DHT22;5884;43.618;1.438;2024-03-23T15:58:53;16.00;99.90
11656;DHT22;5884;43.618;1.438;2024-03-23T16:01:20;15.90;99.90
11656;DHT22;5884;43.618;1.438;2024-03-23T16:03:47;15.80;99.90
11656;DHT22;5884;43.618;1.438;2024-03-23T16:06:14;15.90;99.90
11656;DHT22;5884;43.618;1.438;2024-03-23T16:08:41;15.80;99.90
11656;DHT22;5884;43.618;1.438;2024-03-23T16:11:08;16.00;99.90
11656;DHT22;5884;43.618;1.438;2024-03-23T16:13:37;15.80;99.90
11656;DHT22;5884;43.618;1.438;2024-03-23T16:16:04;15.80;99.90
11656;DHT22;5884;43.618;1.438;2024-03-23T16:18:34;15.80;99.90
11656;DHT22;5884;43.618;1.438;2024-03-23T16:21:02;15.70;99.90
11656;DHT22;5884;43.618;1.438;2024-03-23T16:23:32;15.70;99.90
11656;DHT22;5884;43.618;1.438;2024-03-23T16:25:58;15.70;99.90
11656;DHT22;5884;43.618;1.438;2024-03-23T16:28:28;15.70;99.90
11656;DHT22;5884;43.618;1.438;2024-03-23T16:30:57;15.70;99.90
11656;DHT22;5884;43.618;1.438;2024-03-23T16:33:25;15.70;99.90
11656;DHT22;5884;43.618;1.438;2024-03-23T16:35:56;15.50;99.90
11656;DHT22;5884;43.618;1.438;2024-03-23T16:38:24;15.50;99.90
11656;DHT22;5884;43.618;1.438;2024-03-23T16:40:56;15.40;99.90
11656;DHT22;5884;43.618;1.438;2024-03-23T16:43:24;15.30;99.90
11656;DHT22;5884;43.618;1.438;2024-03-23T16:45:57;15.40;99.90
11656;DHT22;5884;43.618;1.438;2024-03-23T16:48:26;15.40;99.90
11656;DHT22;5884;43.618;1.438;2024-03-23T16:50:56;15.20;99.90
11656;DHT22;5884;43.618;1.438;2024-03-23T16:53:24;15.20;99.90
11656;DHT22;5884;43.618;1.438;2024-03-23T16:55:54;15.20;99.90
11656;DHT22;5884;43.618;1.438;2024-03-23T16:58:23;15.20;99.90
11656;DHT22;5884;43.618;1.438;2024-03-23T17:00:49;15.20;99.90
11656;DHT22;5884;43.618;1.438;2024-03-23T17:03:20;15.10;99.90
11656;DHT22;5884;43.618;1.438;2024-03-23T17:05:46;14.90;99.90
11656;DHT22;5884;43.618;1.438;2024-03-23T17:08:13;14.80;99.90
11656;DHT22;5884;43.618;1.438;2024-03-23T17:10:39;14.90;99.90
11656;DHT22;5884;43.618;1.438;2024-03-23T17:13:07;14.80;99.90
11656;DHT22;5884;43.618;1.438;2024-03-23T17:15:33;14.70;99.90
11656;DHT22;5884;43.618;1.438;2024-03-23T17:18:01;14.70;99.90
11656;DHT22;5884;43.618;1.438;2024-03-23T17:20:28;14.70;99.90
11656;DHT22;5884;43.618;1.438;2024-03-23T17:22:56;14.80;99.90
11656;DHT22;5884;43.618;1.438;2024-03-23T17:25:22;14.60;99.90
11656;DHT22;5884;43.618;1.438;2024-03-23T17:27:50;14.50;99.90
11656;DHT22;5884;43.618;1.438;2024-03-23T17:30:16;14.50;99.90
11656;DHT22;5884;43.618;1.438;2024-03-23T17:32:43;14.50;99.90
11656;DHT22;5884;43.618;1.438;2024-03-23T17:35:10;14.40;99.90
11656;DHT22;5884;43.618;1.438;2024-03-23T17:37:40;14.40;99.90
11656;DHT22;5884;43.618;1.438;2024-03-23T17:40:07;14.40;99.90
11656;DHT22;5884;43.618;1.438;2024-03-23T17:42:36;14.40;99.90
11656;DHT22;5884;43.618;1.438;2024-03-23T17:45:04;14.30;99.90
11656;DHT22;5884;43.618;1.438;2024-03-23T17:47:36;14.20;99.90
11656;DHT22;5884;43.618;1.438;2024-03-23T17:50:03;14.10;99.90
11656;DHT22;5884;43.618;1.438;2024-03-23T17:52:31;14.10;99.90
11656;DHT22;5884;43.618;1.438;2024-03-23T17:54:59;14.00;99.90
11656;DHT22;5884;43.618;1.438;2024-03-23T17:57:27;13.90;99.90
11656;DHT22;5884;43.618;1.438;2024-03-23T17:59:54;14.00;99.90
11656;DHT22;5884;43.618;1.438;2024-03-23T18:02:21;13.90;99.90
11656;DHT22;5884;43.618;1.438;2024-03-23T18:04:48;13.90;99.90
11656;DHT22;5884;43.618;1.438;2024-03-23T18:07:16;13.70;99.90
11656;DHT22;5884;43.618;1.438;2024-03-23T18:09:42;13.60;99.90
11656;DHT22;5884;43.618;1.438;2024-03-23T18:12:11;13.50;99.90
11656;DHT22;5884;43.618;1.438;2024-03-23T18:14:37;13.50;99.90
11656;DHT22;5884;43.618;1.438;2024-03-23T18:17:05;13.40;99.90
11656;DHT22;5884;43.618;1.438;2024-03-23T18:19:31;13.30;99.90
11656;DHT22;5884;43.618;1.438;2024-03-23T18:21:58;13.30;99.90
11656;DHT22;5884;43.618;1.438;2024-03-23T18:24:25;13.20;99.90
11656;DHT22;5884;43.618;1.438;2024-03-23T18:26:52;13.20;99.90
11656;DHT22;5884;43.618;1.438;2024-03-23T18:29:20;13.10;99.90
11656;DHT22;5884;43.618;1.438;2024-03-23T18:31:47;13.10;99.90
11656;DHT22;5884;43.618;1.438;2024-03-23T18:34:13;13.00;99.90
11656;DHT22;5884;43.618;1.438;2024-03-23T18:36:41;13.00;99.90
11656;DHT22;5884;43.618;1.438;2024-03-23T18:39:07;13.00;99.90
11656;DHT22;5884;43.618;1.438;2024-03-23T18:41:35;12.90;99.90
11656;DHT22;5884;43.618;1.438;2024-03-23T18:44:01;12.90;99.90
11656;DHT22;5884;43.618;1.438;2024-03-23T18:46:30;12.90;99.90
11656;DHT22;5884;43.618;1.438;2024-03-23T18:48:56;12.80;99.90
11656;DHT22;5884;43.618;1.438;2024-03-23T18:51:26;12.70;99.90
11656;DHT22;5884;43.618;1.438;2024-03-23T18:53:54;12.70;99.90
11656;DHT22;5884;43.618;1.438;2024-03-23T18:56:25;12.70;99.90
11656;DHT22;5884;43.618;1.438;2024-03-23T18:58:51;12.70;99.90
11656;DHT22;5884;43.618;1.438;2024-03-23T19:01:19;12.60;99.90
11656;DHT22;5884;43.618;1.438;2024-03-23T19:03:47;12.60;99.90
11656;DHT22;5884;43.618;1.438;2024-03-23T19:06:14;12.60;99.90
11656;DHT22;5884;43.618;1.438;2024-03-23T19:08:41;12.60;99.90
11656;DHT22;5884;43.618;1.438;2024-03-23T19:11:08;12.60;99.90
11656;DHT22;5884;43.618;1.438;2024-03-23T19:13:35;12.60;99.90
11656;DHT22;5884;43.618;1.438;2024-03-23T19:16:03;12.60;99.90
11656;DHT22;5884;43.618;1.438;2024-03-23T19:18:31;12.50;99.90
11656;DHT22;5884;43.618;1.438;2024-03-23T19:21:00;12.40;99.90
11656;DHT22;5884;43.618;1.438;2024-03-23T19:23:27;12.40;99.90
11656;DHT22;5884;43.618;1.438;2024-03-23T19:25:56;12.40;99.90
11656;DHT22;5884;43.618;1.438;2024-03-23T19:28:23;12.40;99.90
11656;DHT22;5884;43.618;1.438;2024-03-23T19:30:51;12.40;99.90
11656;DHT22;5884;43.618;1.438;2024-03-23T19:33:18;12.30;99.90
11656;DHT22;5884;43.618;1.438;2024-03-23T19:35:46;12.30;99.90
11656;DHT22;5884;43.618;1.438;2024-03-23T19:38:14;12.30;99.90
11656;DHT22;5884;43.618;1.438;2024-03-23T19:40:41;12.30;99.90
11656;DHT22;5884;43.618;1.438;2024-03-23T19:43:08;12.30;99.90
11656;DHT22;5884;43.618;1.438;2024-03-23T19:45:35;12.30;99.90
11656;DHT22;5884;43.618;1.438;2024-03-23T19:48:02;12.40;99.90
11656;DHT22;5884;43.618;1.438;2024-03-23T19:50:32;12.40;99.90
11656;DHT22;5884;43.618;1.438;2024-03-23T19:53:00;12.40;99.90
11656;DHT22;5884;43.618;1.438;2024-03-23T19:55:28;12.40;99.90
11656;DHT22;5884;43.618;1.438;2024-03-23T19:57:55;12.40;99.90
11656;DHT22;5884;43.618;1.438;2024-03-23T20:00:24;12.40;99.90
11656;DHT22;5884;43.618;1.438;2024-03-23T20:02:50;12.50;99.90
11656;DHT22;5884;43.618;1.438;2024-03-23T20:05:17;12.50;99.90
11656;DHT22;5884;43.618;1.438;2024-03-23T20:07:43;12.40;99.90
11656;DHT22;5884;43.618;1.438;2024-03-23T20:10:11;12.50;99.90
11656;DHT22;5884;43.618;1.438;2024-03-23T20:12:39;12.40;99.90
11656;DHT22;5884;43.618;1.438;2024-03-23T20:15:07;12.50;99.90
11656;DHT22;5884;43.618;1.438;2024-03-23T20:17:33;12.50;99.90
11656;DHT22;5884;43.618;1.438;2024-03-23T20:20:00;12.40;99.90
11656;DHT22;5884;43.618;1.438;2024-03-23T20:22:27;12.50;99.90
11656;DHT22;5884;43.618;1.438;2024-03-23T20:24:54;12.40;99.90
11656;DHT22;5884;43.618;1.438;2024-03-23T20:27:20;12.40;99.90
11656;DHT22;5884;43.618;1.438;2024-03-23T20:29:49;12.40;99.90
11656;DHT22;5884;43.618;1.438;2024-03-23T20:32:17;12.30;99.90
11656;DHT22;5884;43.618;1.438;2024-03-23T20:34:45;12.30;99.90
11656;DHT22;5884;43.618;1.438;2024-03-23T20:37:11;12.30;99.90
11656;DHT22;5884;43.618;1.438;2024-03-23T20:39:38;12.30;99.90
11656;DHT22;5884;43.618;1.438;2024-03-23T20:42:05;12.20;99.90
11656;DHT22;5884;43.618;1.438;2024-03-23T20:44:32;12.20;99.90
11656;DHT22;5884;43.618;1.438;2024-03-23T20:47:00;12.10;99.90
11656;DHT22;5884;43.618;1.438;2024-03-23T20:49:27;12.10;99.90
11656;DHT22;5884;43.618;1.438;2024-03-23T20:51:53;12.10;99.90
11656;DHT22;5884;43.618;1.438;2024-03-23T20:54:21;12.10;99.90
11656;DHT22;5884;43.618;1.438;2024-03-23T20:56:47;12.10;99.90
11656;DHT22;5884;43.618;1.438;2024-03-23T20:59:15;12.10;99.90
11656;DHT22;5884;43.618;1.438;2024-03-23T21:01:42;12.00;99.90
11656;DHT22;5884;43.618;1.438;2024-03-23T21:04:10;12.00;99.90
11656;DHT22;5884;43.618;1.438;2024-03-23T21:06:37;12.00;99.90
11656;DHT22;5884;43.618;1.438;2024-03-23T21:09:04;11.90;99.90
11656;DHT22;5884;43.618;1.438;2024-03-23T21:11:33;11.90;99.90
11656;DHT22;5884;43.618;1.438;2024-03-23T21:14:00;11.80;99.90
11656;DHT22;5884;43.618;1.438;2024-03-23T21:16:26;11.80;99.90
11656;DHT22;5884;43.618;1.438;2024-03-23T21:18:53;11.70;99.90
11656;DHT22;5884;43.618;1.438;2024-03-23T21:21:23;11.70;99.90
11656;DHT22;5884;43.618;1.438;2024-03-23T21:23:51;11.60;99.90
11656;DHT22;5884;43.618;1.438;2024-03-23T21:26:18;11.60;99.90
11656;DHT22;5884;43.618;1.438;2024-03-23T21:28:45;11.50;99.90
11656;DHT22;5884;43.618;1.438;2024-03-23T21:31:11;11.50;99.90
11656;DHT22;5884;43.618;1.438;2024-03-23T21:33:39;11.40;99.90
11656;DHT22;5884;43.618;1.438;2024-03-23T21:36:05;11.30;99.90
11656;DHT22;5884;43.618;1.438;2024-03-23T21:38:34;11.40;99.90